sensor_id;sensor_type;location;lat;lon;timestamp;pressure;altitude;pressure_sealevel;temperature;humidity
58064;BME280;43851;55.856;37.186;2022-09-03T00:02:15;99823.19;;;6.00;98.10
58064;BME280;43851;55.856;37.186;2022-09-03T00:10:26;99841.16;;;6.29;98.16
58064;BME280;43851;55.856;37.186;2022-09-03T00:12:56;99825.00;;;6.24;96.81
58064;BME280;43851;55.856;37.186;2022-09-03T00:15:25;99848.72;;;6.32;96.57
58064;BME280;43851;55.856;37.186;2022-09-03T00:17:56;99841.81;;;6.31;96.90
58064;BME280;43851;55.856;37.186;2022-09-03T00:20:30;99851.31;;;6.24;97.36
58064;BME280;43851;55.856;37.186;2022-09-03T00:22:59;99848.19;;;6.12;97.62
58064;BME280;43851;55.856;37.186;2022-09-03T00:25:40;99849.34;;;6.09;98.05
58064;BME280;43851;55.856;37.186;2022-09-03T00:28:15;99855.94;;;6.05;97.80
58064;BME280;43851;55.856;37.186;2022-09-03T00:30:46;99851.47;;;6.06;97.64
58064;BME280;43851;55.856;37.186;2022-09-03T00:33:26;99857.56;;;6.06;97.61
58064;BME280;43851;55.856;37.186;2022-09-03T00:38:31;99860.69;;;6.10;97.82
58064;BME280;43851;55.856;37.186;2022-09-03T00:41:12;99864.16;;;6.10;97.55
58064;BME280;43851;55.856;37.186;2022-09-03T00:57:56;99884.09;;;6.21;96.59
58064;BME280;43851;55.856;37.186;2022-09-03T01:00:19;99884.06;;;6.13;96.99
58064;BME280;43851;55.856;37.186;2022-09-03T01:03:05;99883.25;;;6.21;97.32
58064;BME280;43851;55.856;37.186;2022-09-03T01:11:28;99884.91;;;6.38;95.82
58064;BME280;43851;55.856;37.186;2022-09-03T01:25:35;99888.56;;;6.29;95.48
58064;BME280;43851;55.856;37.186;2022-09-03T01:36:50;99902.13;;;6.00;96.79
58064;BME280;43851;55.856;37.186;2022-09-03T01:42:14;99906.13;;;5.77;97.37
58064;BME280;43851;55.856;37.186;2022-09-03T01:50:28;99918.03;;;5.55;98.89
58064;BME280;43851;55.856;37.186;2022-09-03T01:53:23;99912.31;;;5.60;98.73
58064;BME280;43851;55.856;37.186;2022-09-03T01:58:49;99928.41;;;5.57;98.85
58064;BME280;43851;55.856;37.186;2022-09-03T02:01:30;99932.16;;;5.54;99.14
58064;BME280;43851;55.856;37.186;2022-09-03T02:03:58;99940.78;;;5.38;99.09
58064;BME280;43851;55.856;37.186;2022-09-03T02:06:26;99939.97;;;5.38;99.61
58064;BME280;43851;55.856;37.186;2022-09-03T02:08:52;99935.00;;;5.35;99.90
58064;BME280;43851;55.856;37.186;2022-09-03T02:11:18;99944.69;;;5.34;100.00
58064;BME280;43851;55.856;37.186;2022-09-03T02:13:47;99942.75;;;5.36;100.00
58064;BME280;43851;55.856;37.186;2022-09-03T02:16:17;99943.06;;;5.33;100.00
58064;BME280;43851;55.856;37.186;2022-09-03T02:18:50;99946.97;;;5.29;100.00
58064;BME280;43851;55.856;37.186;2022-09-03T02:21:20;99936.59;;;5.28;100.00
58064;BME280;43851;55.856;37.186;2022-09-03T02:23:47;99945.00;;;5.31;100.00
58064;BME280;43851;55.856;37.186;2022-09-03T02:26:17;99951.91;;;5.32;100.00
58064;BME280;43851;55.856;37.186;2022-09-03T02:28:44;99944.50;;;5.28;100.00
58064;BME280;43851;55.856;37.186;2022-09-03T02:31:10;99944.03;;;5.32;100.00
58064;BME280;43851;55.856;37.186;2022-09-03T02:33:38;99949.94;;;5.34;100.00
58064;BME280;43851;55.856;37.186;2022-09-03T02:36:08;99949.03;;;5.43;100.00
58064;BME280;43851;55.856;37.186;2022-09-03T02:38:34;99951.34;;;5.47;100.00
58064;BME280;43851;55.856;37.186;2022-09-03T02:41:00;99940.84;;;5.55;100.00
58064;BME280;43851;55.856;37.186;2022-09-03T02:43:31;99951.28;;;5.65;99.88
58064;BME280;43851;55.856;37.186;2022-09-03T02:46:01;99945.75;;;5.76;99.40
58064;BME280;43851;55.856;37.186;2022-09-03T02:48:28;99953.03;;;5.82;98.34
58064;BME280;43851;55.856;37.186;2022-09-03T02:50:54;99956.66;;;5.89;97.83
58064;BME280;43851;55.856;37.186;2022-09-03T02:53:20;99948.25;;;5.86;98.07
58064;BME280;43851;55.856;37.186;2022-09-03T02:55:46;99969.00;;;5.89;97.37
58064;BME280;43851;55.856;37.186;2022-09-03T02:58:12;99971.75;;;6.05;96.79
58064;BME280;43851;55.856;37.186;2022-09-03T03:00:38;99968.81;;;6.17;97.04
58064;BME280;43851;55.856;37.186;2022-09-03T03:03:05;99972.75;;;6.12;96.92
58064;BME280;43851;55.856;37.186;2022-09-03T03:05:48;99969.81;;;6.24;96.85
58064;BME280;43851;55.856;37.186;2022-09-03T03:08:14;99963.75;;;6.31;95.62
58064;BME280;43851;55.856;37.186;2022-09-03T03:10:42;99967.41;;;6.39;95.06
58064;BME280;43851;55.856;37.186;2022-09-03T03:13:10;99966.75;;;6.37;95.19
58064;BME280;43851;55.856;37.186;2022-09-03T03:15:35;99959.66;;;6.37;95.31
58064;BME280;43851;55.856;37.186;2022-09-03T03:18:01;99964.59;;;6.40;95.13
58064;BME280;43851;55.856;37.186;2022-09-03T03:20:27;99969.03;;;6.40;95.11
58064;BME280;43851;55.856;37.186;2022-09-03T03:22:53;99993.88;;;6.29;95.92
58064;BME280;43851;55.856;37.186;2022-09-03T03:25:19;99995.50;;;6.30;96.08
58064;BME280;43851;55.856;37.186;2022-09-03T03:27:45;100000.94;;;6.28;96.52
58064;BME280;43851;55.856;37.186;2022-09-03T03:30:11;99997.47;;;6.20;96.34
58064;BME280;43851;55.856;37.186;2022-09-03T03:32:37;99999.78;;;6.31;96.70
58064;BME280;43851;55.856;37.186;2022-09-03T03:35:05;100001.78;;;6.29;96.62
58064;BME280;43851;55.856;37.186;2022-09-03T03:37:32;99993.41;;;6.42;95.65
58064;BME280;43851;55.856;37.186;2022-09-03T03:40:01;99991.09;;;6.30;96.15
58064;BME280;43851;55.856;37.186;2022-09-03T03:42:32;99992.06;;;6.29;95.52
58064;BME280;43851;55.856;37.186;2022-09-03T03:44:59;100008.81;;;6.28;96.80
58064;BME280;43851;55.856;37.186;2022-09-03T03:47:29;100006.56;;;6.42;96.61
58064;BME280;43851;55.856;37.186;2022-09-03T03:49:58;100007.53;;;6.32;95.61
58064;BME280;43851;55.856;37.186;2022-09-03T03:52:26;100004.34;;;6.21;95.92
58064;BME280;43851;55.856;37.186;2022-09-03T03:54:52;99996.75;;;6.09;96.57
58064;BME280;43851;55.856;37.186;2022-09-03T03:57:19;100004.94;;;5.98;97.14
58064;BME280;43851;55.856;37.186;2022-09-03T03:59:46;100011.59;;;5.92;97.34
58064;BME280;43851;55.856;37.186;2022-09-03T04:02:12;100003.50;;;6.12;97.92
58064;BME280;43851;55.856;37.186;2022-09-03T04:04:38;100011.09;;;6.15;96.98
58064;BME280;43851;55.856;37.186;2022-09-03T04:07:04;100019.19;;;6.30;95.88
58064;BME280;43851;55.856;37.186;2022-09-03T04:09:30;100019.56;;;6.35;96.42
58064;BME280;43851;55.856;37.186;2022-09-03T04:11:55;100023.38;;;6.49;96.83
58064;BME280;43851;55.856;37.186;2022-09-03T04:14:23;100032.13;;;6.49;96.63
58064;BME280;43851;55.856;37.186;2022-09-03T04:16:49;100025.53;;;6.54;96.53
58064;BME280;43851;55.856;37.186;2022-09-03T04:19:16;100027.41;;;6.78;94.93
58064;BME280;43851;55.856;37.186;2022-09-03T04:21:42;100032.38;;;6.89;94.63
58064;BME280;43851;55.856;37.186;2022-09-03T04:24:08;100030.88;;;6.95;94.26
58064;BME280;43851;55.856;37.186;2022-09-03T04:26:34;100017.22;;;6.99;93.18
58064;BME280;43851;55.856;37.186;2022-09-03T04:29:05;100035.66;;;6.91;93.35
58064;BME280;43851;55.856;37.186;2022-09-03T04:31:32;100029.41;;;6.84;94.20
58064;BME280;43851;55.856;37.186;2022-09-03T04:33:59;100026.94;;;7.07;93.70
58064;BME280;43851;55.856;37.186;2022-09-03T04:36:29;100012.63;;;7.01;93.37
58064;BME280;43851;55.856;37.186;2022-09-03T04:38:58;100032.38;;;6.97;92.77
58064;BME280;43851;55.856;37.186;2022-09-03T04:41:25;100029.56;;;6.99;93.51
58064;BME280;43851;55.856;37.186;2022-09-03T04:43:53;100025.31;;;7.14;93.22
58064;BME280;43851;55.856;37.186;2022-09-03T04:46:21;100033.38;;;7.29;92.83
58064;BME280;43851;55.856;37.186;2022-09-03T04:48:49;100036.50;;;7.49;92.42
58064;BME280;43851;55.856;37.186;2022-09-03T04:51:19;100041.28;;;7.54;91.28
58064;BME280;43851;55.856;37.186;2022-09-03T04:53:46;100030.72;;;7.62;91.08
58064;BME280;43851;55.856;37.186;2022-09-03T04:56:16;100021.66;;;7.65;91.11
58064;BME280;43851;55.856;37.186;2022-09-03T04:58:43;100029.53;;;7.73;90.16
58064;BME280;43851;55.856;37.186;2022-09-03T05:01:15;100036.97;;;7.53;90.10
58064;BME280;43851;55.856;37.186;2022-09-03T05:03:41;100045.09;;;7.59;90.76
58064;BME280;43851;55.856;37.186;2022-09-03T05:06:07;100045.53;;;7.71;90.97
58064;BME280;43851;55.856;37.186;2022-09-03T05:08:34;100054.47;;;7.70;90.19
58064;BME280;43851;55.856;37.186;2022-09-03T05:11:03;100049.63;;;7.90;90.11
58064;BME280;43851;55.856;37.186;2022-09-03T05:13:29;100044.69;;;7.95;89.50
58064;BME280;43851;55.856;37.186;2022-09-03T05:15:59;100052.41;;;8.05;89.40
58064;BME280;43851;55.856;37.186;2022-09-03T05:18:26;100049.44;;;8.08;89.03
58064;BME280;43851;55.856;37.186;2022-09-03T05:21:04;100055.81;;;8.22;89.43
58064;BME280;43851;55.856;37.186;2022-09-03T05:23:30;100050.84;;;8.67;87.82
58064;BME280;43851;55.856;37.186;2022-09-03T05:25:58;100062.41;;;8.97;85.54
58064;BME280;43851;55.856;37.186;2022-09-03T05:28:25;100057.41;;;9.26;85.28
58064;BME280;43851;55.856;37.186;2022-09-03T05:31:03;100045.47;;;9.30;84.38
58064;BME280;43851;55.856;37.186;2022-09-03T05:33:32;100062.47;;;9.73;83.24
58064;BME280;43851;55.856;37.186;2022-09-03T05:36:04;100052.75;;;10.34;81.73
58064;BME280;43851;55.856;37.186;2022-09-03T05:38:29;100061.09;;;10.67;79.47
58064;BME280;43851;55.856;37.186;2022-09-03T05:41:04;100066.63;;;10.87;77.28
58064;BME280;43851;55.856;37.186;2022-09-03T05:43:31;100072.75;;;10.88;77.30
58064;BME280;43851;55.856;37.186;2022-09-03T05:45:58;100070.28;;;10.86;77.12
58064;BME280;43851;55.856;37.186;2022-09-03T05:48:32;100069.47;;;10.86;77.14
58064;BME280;43851;55.856;37.186;2022-09-03T05:51:06;100080.13;;;10.92;77.40
58064;BME280;43851;55.856;37.186;2022-09-03T05:53:35;100073.19;;;11.13;76.62
58064;BME280;43851;55.856;37.186;2022-09-03T05:56:03;100074.06;;;11.35;75.37
58064;BME280;43851;55.856;37.186;2022-09-03T05:58:31;100094.72;;;11.18;76.21
58064;BME280;43851;55.856;37.186;2022-09-03T06:00:57;100087.16;;;10.78;77.06
58064;BME280;43851;55.856;37.186;2022-09-03T06:03:24;100078.09;;;10.58;78.06
58064;BME280;43851;55.856;37.186;2022-09-03T06:05:53;100076.00;;;10.68;77.80
58064;BME280;43851;55.856;37.186;2022-09-03T06:08:25;100043.63;;;10.58;77.94
58064;BME280;43851;55.856;37.186;2022-09-03T06:10:59;100078.66;;;10.68;77.32
58064;BME280;43851;55.856;37.186;2022-09-03T06:13:26;100065.84;;;10.72;78.45
58064;BME280;43851;55.856;37.186;2022-09-03T06:15:58;100081.44;;;10.81;78.12
58064;BME280;43851;55.856;37.186;2022-09-03T06:18:29;100080.13;;;10.92;77.49
58064;BME280;43851;55.856;37.186;2022-09-03T06:21:05;100082.41;;;10.95;77.22
58064;BME280;43851;55.856;37.186;2022-09-03T06:23:33;100085.53;;;10.99;77.24
58064;BME280;43851;55.856;37.186;2022-09-03T06:28:29;100085.00;;;10.89;77.53
58064;BME280;43851;55.856;37.186;2022-09-03T06:30:58;100080.44;;;10.82;77.74
58064;BME280;43851;55.856;37.186;2022-09-03T06:33:24;100082.59;;;10.94;77.62
58064;BME280;43851;55.856;37.186;2022-09-03T06:35:54;100075.59;;;11.08;77.31
58064;BME280;43851;55.856;37.186;2022-09-03T06:38:24;100084.69;;;10.98;76.99
58064;BME280;43851;55.856;37.186;2022-09-03T06:40:54;100084.84;;;11.12;77.39
58064;BME280;43851;55.856;37.186;2022-09-03T06:43:21;100091.69;;;11.21;76.98
58064;BME280;43851;55.856;37.186;2022-09-03T06:45:58;100085.72;;;11.41;75.71
58064;BME280;43851;55.856;37.186;2022-09-03T06:48:26;100093.25;;;11.37;75.79
58064;BME280;43851;55.856;37.186;2022-09-03T06:50:59;100089.31;;;11.33;75.55
58064;BME280;43851;55.856;37.186;2022-09-03T06:53:30;100094.13;;;11.44;75.48
58064;BME280;43851;55.856;37.186;2022-09-03T06:56:00;100089.75;;;11.58;75.49
58064;BME280;43851;55.856;37.186;2022-09-03T06:58:31;100075.81;;;11.49;74.86
58064;BME280;43851;55.856;37.186;2022-09-03T07:01:05;100087.44;;;11.48;75.03
58064;BME280;43851;55.856;37.186;2022-09-03T07:03:32;100095.94;;;11.65;74.97
58064;BME280;43851;55.856;37.186;2022-09-03T07:06:02;100094.16;;;11.72;75.28
58064;BME280;43851;55.856;37.186;2022-09-03T07:08:30;100095.84;;;11.80;74.06
58064;BME280;43851;55.856;37.186;2022-09-03T07:11:00;100091.81;;;11.84;74.57
58064;BME280;43851;55.856;37.186;2022-09-03T07:13:30;100094.50;;;11.91;73.58
58064;BME280;43851;55.856;37.186;2022-09-03T07:16:05;100101.53;;;11.99;72.64
58064;BME280;43851;55.856;37.186;2022-09-03T07:18:31;100102.44;;;12.13;72.64
58064;BME280;43851;55.856;37.186;2022-09-03T07:20:59;100103.34;;;12.26;72.79
58064;BME280;43851;55.856;37.186;2022-09-03T07:23:26;100116.47;;;12.35;72.58
58064;BME280;43851;55.856;37.186;2022-09-03T07:25:57;100099.88;;;12.68;71.46
58064;BME280;43851;55.856;37.186;2022-09-03T07:28:24;100101.75;;;12.80;70.54
58064;BME280;43851;55.856;37.186;2022-09-03T07:30:51;100104.53;;;12.59;71.27
58064;BME280;43851;55.856;37.186;2022-09-03T07:33:17;100106.66;;;12.77;70.85
58064;BME280;43851;55.856;37.186;2022-09-03T07:35:44;100109.13;;;12.85;70.71
58064;BME280;43851;55.856;37.186;2022-09-03T07:38:10;100103.72;;;12.65;71.16
58064;BME280;43851;55.856;37.186;2022-09-03T07:40:36;100114.53;;;13.05;70.71
58064;BME280;43851;55.856;37.186;2022-09-03T07:43:04;100105.34;;;13.14;68.73
58064;BME280;43851;55.856;37.186;2022-09-03T07:45:30;100096.38;;;13.35;67.95
58064;BME280;43851;55.856;37.186;2022-09-03T07:47:58;100100.28;;;13.46;66.23
58064;BME280;43851;55.856;37.186;2022-09-03T07:50:24;100103.97;;;13.72;65.04
58064;BME280;43851;55.856;37.186;2022-09-03T07:52:55;100095.13;;;14.12;63.98
58064;BME280;43851;55.856;37.186;2022-09-03T07:55:20;100088.94;;;14.24;63.35
58064;BME280;43851;55.856;37.186;2022-09-03T07:57:46;100090.22;;;14.08;63.21
58064;BME280;43851;55.856;37.186;2022-09-03T08:00:13;100092.47;;;14.05;61.15
58064;BME280;43851;55.856;37.186;2022-09-03T08:02:39;100095.75;;;14.14;61.76
58064;BME280;43851;55.856;37.186;2022-09-03T08:05:05;100092.81;;;14.35;61.57
58064;BME280;43851;55.856;37.186;2022-09-03T08:07:31;100089.84;;;14.57;60.63
58064;BME280;43851;55.856;37.186;2022-09-03T08:09:57;100089.53;;;14.33;57.14
58064;BME280;43851;55.856;37.186;2022-09-03T08:12:23;100082.31;;;14.40;58.09
58064;BME280;43851;55.856;37.186;2022-09-03T08:14:49;100089.53;;;14.26;57.78
58064;BME280;43851;55.856;37.186;2022-09-03T08:17:15;100091.63;;;14.24;57.83
58064;BME280;43851;55.856;37.186;2022-09-03T08:19:41;100094.59;;;14.55;57.49
58064;BME280;43851;55.856;37.186;2022-09-03T08:22:08;100090.28;;;14.54;56.02
58064;BME280;43851;55.856;37.186;2022-09-03T08:24:35;100074.88;;;14.56;55.90
58064;BME280;43851;55.856;37.186;2022-09-03T08:27:00;100080.22;;;14.56;55.20
58064;BME280;43851;55.856;37.186;2022-09-03T08:29:26;100087.38;;;14.69;54.65
58064;BME280;43851;55.856;37.186;2022-09-03T08:31:52;100078.97;;;14.58;54.85
58064;BME280;43851;55.856;37.186;2022-09-03T08:34:18;100098.09;;;14.62;53.85
58064;BME280;43851;55.856;37.186;2022-09-03T08:36:45;100084.75;;;14.62;55.14
58064;BME280;43851;55.856;37.186;2022-09-03T08:39:11;100091.44;;;14.78;53.51
58064;BME280;43851;55.856;37.186;2022-09-03T08:52:29;100093.44;;;14.24;51.41
58064;BME280;43851;55.856;37.186;2022-09-03T08:55:17;100086.19;;;14.51;52.10
58064;BME280;43851;55.856;37.186;2022-09-03T08:58:05;100088.38;;;14.74;51.27
58064;BME280;43851;55.856;37.186;2022-09-03T09:00:45;100081.00;;;15.08;50.76
58064;BME280;43851;55.856;37.186;2022-09-03T09:16:52;100084.97;;;15.31;47.83
58064;BME280;43851;55.856;37.186;2022-09-03T09:19:41;100088.47;;;15.31;46.86
58064;BME280;43851;55.856;37.186;2022-09-03T09:22:09;100087.91;;;15.23;47.75
58064;BME280;43851;55.856;37.186;2022-09-03T09:24:42;100068.84;;;15.44;46.45
58064;BME280;43851;55.856;37.186;2022-09-03T09:27:12;100081.66;;;15.61;45.93
58064;BME280;43851;55.856;37.186;2022-09-03T09:29:42;100068.56;;;15.52;45.34
58064;BME280;43851;55.856;37.186;2022-09-03T09:32:11;100070.16;;;15.85;45.77
58064;BME280;43851;55.856;37.186;2022-09-03T09:34:39;100062.13;;;15.85;45.37
58064;BME280;43851;55.856;37.186;2022-09-03T09:37:09;100069.88;;;16.12;44.61
58064;BME280;43851;55.856;37.186;2022-09-03T09:39:36;100073.47;;;16.43;43.69
58064;BME280;43851;55.856;37.186;2022-09-03T09:42:10;100075.84;;;16.33;44.23
58064;BME280;43851;55.856;37.186;2022-09-03T09:44:38;100074.81;;;16.34;45.19
58064;BME280;43851;55.856;37.186;2022-09-03T09:47:10;100069.94;;;16.42;44.26
58064;BME280;43851;55.856;37.186;2022-09-03T09:49:51;100061.78;;;16.19;45.25
58064;BME280;43851;55.856;37.186;2022-09-03T09:52:17;100054.06;;;16.29;45.07
58064;BME280;43851;55.856;37.186;2022-09-03T09:54:45;100055.63;;;16.00;44.71
58064;BME280;43851;55.856;37.186;2022-09-03T09:57:22;100052.19;;;16.11;45.19
58064;BME280;43851;55.856;37.186;2022-09-03T09:59:48;100052.88;;;16.25;45.34
58064;BME280;43851;55.856;37.186;2022-09-03T10:02:25;100055.63;;;16.00;44.24
58064;BME280;43851;55.856;37.186;2022-09-03T10:05:01;100056.88;;;16.16;45.00
58064;BME280;43851;55.856;37.186;2022-09-03T10:07:36;100048.63;;;16.17;44.86
58064;BME280;43851;55.856;37.186;2022-09-03T10:10:16;100045.88;;;15.87;45.26
58064;BME280;43851;55.856;37.186;2022-09-03T10:12:48;100048.69;;;15.67;46.29
58064;BME280;43851;55.856;37.186;2022-09-03T10:15:51;100054.91;;;15.42;45.52
58064;BME280;43851;55.856;37.186;2022-09-03T10:22:11;100059.09;;;15.25;47.94
58064;BME280;43851;55.856;37.186;2022-09-03T10:24:51;100060.16;;;15.24;47.15
58064;BME280;43851;55.856;37.186;2022-09-03T10:27:18;100061.69;;;15.38;46.71
58064;BME280;43851;55.856;37.186;2022-09-03T10:29:45;100059.09;;;15.57;46.67
58064;BME280;43851;55.856;37.186;2022-09-03T10:32:42;100057.22;;;15.32;45.72
58064;BME280;43851;55.856;37.186;2022-09-03T10:35:24;100066.66;;;15.34;46.44
58064;BME280;43851;55.856;37.186;2022-09-03T10:41:19;100062.31;;;15.08;47.03
58064;BME280;43851;55.856;37.186;2022-09-03T10:44:20;100065.53;;;14.85;47.99
58064;BME280;43851;55.856;37.186;2022-09-03T10:49:52;100071.53;;;14.74;49.69
58064;BME280;43851;55.856;37.186;2022-09-03T10:52:31;100076.06;;;14.73;48.67
58064;BME280;43851;55.856;37.186;2022-09-03T11:03:38;100081.88;;;14.64;54.75
58064;BME280;43851;55.856;37.186;2022-09-03T11:06:14;100082.09;;;14.62;55.85
58064;BME280;43851;55.856;37.186;2022-09-03T11:09:11;100076.13;;;14.60;56.19
58064;BME280;43851;55.856;37.186;2022-09-03T11:11:46;100073.63;;;14.72;57.32
58064;BME280;43851;55.856;37.186;2022-09-03T11:14:17;100076.25;;;15.10;56.85
58064;BME280;43851;55.856;37.186;2022-09-03T11:17:05;100074.06;;;15.58;55.04
58064;BME280;43851;55.856;37.186;2022-09-03T11:19:40;100055.53;;;15.88;53.27
58064;BME280;43851;55.856;37.186;2022-09-03T11:22:09;100064.19;;;16.09;52.92
58064;BME280;43851;55.856;37.186;2022-09-03T11:24:37;100071.66;;;16.00;50.04
58064;BME280;43851;55.856;37.186;2022-09-03T11:29:50;100060.69;;;15.32;50.75
58064;BME280;43851;55.856;37.186;2022-09-03T11:32:23;100066.97;;;15.20;50.45
58064;BME280;43851;55.856;37.186;2022-09-03T11:34:53;100063.00;;;14.97;50.72
58064;BME280;43851;55.856;37.186;2022-09-03T11:37:29;100064.44;;;14.54;51.32
58064;BME280;43851;55.856;37.186;2022-09-03T11:40:18;100057.69;;;14.45;52.51
58064;BME280;43851;55.856;37.186;2022-09-03T11:42:46;100056.59;;;14.59;51.18
58064;BME280;43851;55.856;37.186;2022-09-03T11:47:48;100052.00;;;14.80;50.85
58064;BME280;43851;55.856;37.186;2022-09-03T11:50:22;100046.88;;;15.17;50.51
58064;BME280;43851;55.856;37.186;2022-09-03T11:52:53;100043.34;;;15.16;50.54
58064;BME280;43851;55.856;37.186;2022-09-03T11:56:12;100043.09;;;15.75;50.23
58064;BME280;43851;55.856;37.186;2022-09-03T11:58:35;100037.34;;;16.15;49.38
58064;BME280;43851;55.856;37.186;2022-09-03T12:01:07;100041.88;;;16.15;47.83
58064;BME280;43851;55.856;37.186;2022-09-03T12:04:02;100030.06;;;15.85;48.85
58064;BME280;43851;55.856;37.186;2022-09-03T12:06:54;100028.59;;;15.64;47.93
58064;BME280;43851;55.856;37.186;2022-09-03T12:09:46;100017.06;;;15.64;47.61
58064;BME280;43851;55.856;37.186;2022-09-03T12:18:21;100015.28;;;15.58;48.71
58064;BME280;43851;55.856;37.186;2022-09-03T12:23:40;100009.22;;;15.69;49.80
58064;BME280;43851;55.856;37.186;2022-09-03T12:26:17;100011.94;;;15.62;48.87
58064;BME280;43851;55.856;37.186;2022-09-03T12:28:51;100005.50;;;15.51;48.38
58064;BME280;43851;55.856;37.186;2022-09-03T12:31:21;100001.53;;;15.79;48.73
58064;BME280;43851;55.856;37.186;2022-09-03T12:36:24;99984.97;;;16.08;48.36
58064;BME280;43851;55.856;37.186;2022-09-03T12:38:51;99989.66;;;16.12;47.65
58064;BME280;43851;55.856;37.186;2022-09-03T12:41:29;99992.84;;;16.21;48.02
58064;BME280;43851;55.856;37.186;2022-09-03T12:43:57;99980.19;;;16.28;47.92
58064;BME280;43851;55.856;37.186;2022-09-03T12:46:29;99975.81;;;16.15;47.66
58064;BME280;43851;55.856;37.186;2022-09-03T12:49:00;99980.38;;;16.15;47.05
58064;BME280;43851;55.856;37.186;2022-09-03T12:51:39;99979.97;;;16.30;47.16
58064;BME280;43851;55.856;37.186;2022-09-03T12:54:07;99975.28;;;16.25;46.97
58064;BME280;43851;55.856;37.186;2022-09-03T12:56:39;99971.91;;;16.18;46.67
58064;BME280;43851;55.856;37.186;2022-09-03T12:59:11;99971.22;;;16.04;46.15
58064;BME280;43851;55.856;37.186;2022-09-03T13:02:04;99974.34;;;15.82;47.30
58064;BME280;43851;55.856;37.186;2022-09-03T13:04:33;99980.38;;;15.78;47.88
58064;BME280;43851;55.856;37.186;2022-09-03T13:07:05;99969.97;;;15.88;47.35
58064;BME280;43851;55.856;37.186;2022-09-03T13:09:37;99981.94;;;15.85;47.63
58064;BME280;43851;55.856;37.186;2022-09-03T13:12:05;99925.25;;;15.95;47.53
58064;BME280;43851;55.856;37.186;2022-09-03T13:14:42;99930.38;;;15.97;46.27
58064;BME280;43851;55.856;37.186;2022-09-03T13:17:46;99975.34;;;16.67;45.60
58064;BME280;43851;55.856;37.186;2022-09-03T13:20:40;99972.72;;;16.49;45.99
58064;BME280;43851;55.856;37.186;2022-09-03T13:28:45;99979.66;;;16.38;47.60
58064;BME280;43851;55.856;37.186;2022-09-03T13:31:33;99962.78;;;16.37;47.09
58064;BME280;43851;55.856;37.186;2022-09-03T13:34:05;99938.56;;;16.02;46.69
58064;BME280;43851;55.856;37.186;2022-09-03T13:37:08;99962.22;;;16.17;48.63
58064;BME280;43851;55.856;37.186;2022-09-03T13:39:42;99969.72;;;16.27;47.47
58064;BME280;43851;55.856;37.186;2022-09-03T13:42:17;99970.69;;;16.14;46.61
58064;BME280;43851;55.856;37.186;2022-09-03T13:47:42;99957.97;;;15.54;47.91
58064;BME280;43851;55.856;37.186;2022-09-03T13:50:43;99945.38;;;15.36;47.66
58064;BME280;43851;55.856;37.186;2022-09-03T13:56:06;99963.78;;;15.00;48.88
58064;BME280;43851;55.856;37.186;2022-09-03T13:58:56;99950.88;;;14.97;49.47
58064;BME280;43851;55.856;37.186;2022-09-03T14:01:37;99943.88;;;14.71;49.75
58064;BME280;43851;55.856;37.186;2022-09-03T14:04:13;99947.81;;;14.68;49.87
58064;BME280;43851;55.856;37.186;2022-09-03T14:06:48;99958.09;;;14.90;50.53
58064;BME280;43851;55.856;37.186;2022-09-03T14:09:50;99951.75;;;14.91;51.05
58064;BME280;43851;55.856;37.186;2022-09-03T14:12:28;99946.03;;;15.12;50.85
58064;BME280;43851;55.856;37.186;2022-09-03T14:17:45;99939.47;;;15.08;50.95
58064;BME280;43851;55.856;37.186;2022-09-03T14:23:01;99939.63;;;15.13;50.83
58064;BME280;43851;55.856;37.186;2022-09-03T14:25:29;99947.66;;;15.13;50.92
58064;BME280;43851;55.856;37.186;2022-09-03T14:28:12;99941.91;;;15.35;50.98
58064;BME280;43851;55.856;37.186;2022-09-03T14:31:28;99938.03;;;15.31;50.69
58064;BME280;43851;55.856;37.186;2022-09-03T14:36:53;99928.72;;;15.59;49.54
58064;BME280;43851;55.856;37.186;2022-09-03T14:45:15;99932.94;;;15.04;50.58
58064;BME280;43851;55.856;37.186;2022-09-03T14:53:49;99933.53;;;14.42;53.77
58064;BME280;43851;55.856;37.186;2022-09-03T14:56:49;99929.06;;;14.36;54.23
58064;BME280;43851;55.856;37.186;2022-09-03T15:10:44;99918.41;;;14.36;54.29
58064;BME280;43851;55.856;37.186;2022-09-03T15:13:41;99921.50;;;14.33;54.11
58064;BME280;43851;55.856;37.186;2022-09-03T15:19:17;99908.31;;;14.45;54.50
58064;BME280;43851;55.856;37.186;2022-09-03T15:30:51;99925.69;;;14.54;55.14
58064;BME280;43851;55.856;37.186;2022-09-03T15:33:32;99917.28;;;14.51;55.42
58064;BME280;43851;55.856;37.186;2022-09-03T15:36:12;99923.31;;;14.39;55.60
58064;BME280;43851;55.856;37.186;2022-09-03T15:39:00;99916.34;;;14.38;55.41
58064;BME280;43851;55.856;37.186;2022-09-03T15:41:42;99921.50;;;14.33;56.13
58064;BME280;43851;55.856;37.186;2022-09-03T15:44:14;99911.09;;;14.25;56.44
58064;BME280;43851;55.856;37.186;2022-09-03T15:47:05;99914.00;;;14.17;55.82
58064;BME280;43851;55.856;37.186;2022-09-03T15:49:52;99906.69;;;14.05;57.01
58064;BME280;43851;55.856;37.186;2022-09-03T15:52:24;99910.41;;;13.98;57.70
58064;BME280;43851;55.856;37.186;2022-09-03T15:54:55;99909.44;;;13.85;58.34
58064;BME280;43851;55.856;37.186;2022-09-03T16:02:49;99907.84;;;13.64;59.54
58064;BME280;43851;55.856;37.186;2022-09-03T16:05:27;99905.47;;;13.43;59.96
58064;BME280;43851;55.856;37.186;2022-09-03T16:08:09;99910.34;;;13.32;60.73
58064;BME280;43851;55.856;37.186;2022-09-03T16:16:15;99894.63;;;13.04;61.68
58064;BME280;43851;55.856;37.186;2022-09-03T16:18:46;99911.00;;;13.21;61.70
58064;BME280;43851;55.856;37.186;2022-09-03T16:24:11;99897.09;;;12.99;61.72
58064;BME280;43851;55.856;37.186;2022-09-03T16:27:02;99903.63;;;13.03;61.62